sensor_id;sensor_type;location;lat;lon;timestamp;pressure;altitude;pressure_sealevel;temperature;humidity
69622;BME280;56841;55.964;37.674;2022-09-12T00:01:15;99748.34;;;10.83;68.58
69622;BME280;56841;55.964;37.674;2022-09-12T00:03:41;99749.03;;;10.85;68.19
69622;BME280;56841;55.964;37.674;2022-09-12T00:06:16;99754.81;;;10.88;68.96
69622;BME280;56841;55.964;37.674;2022-09-12T00:08:42;99756.47;;;10.81;69.59
69622;BME280;56841;55.964;37.674;2022-09-12T00:11:09;99759.25;;;10.80;69.74
69622;BME280;56841;55.964;37.674;2022-09-12T00:13:36;99750.16;;;10.82;69.82
69622;BME280;56841;55.964;37.674;2022-09-12T00:16:02;99746.53;;;10.91;69.68
69622;BME280;56841;55.964;37.674;2022-09-12T00:18:28;99744.41;;;10.79;70.81
69622;BME280;56841;55.964;37.674;2022-09-12T00:20:54;99745.88;;;10.81;70.98
69622;BME280;56841;55.964;37.674;2022-09-12T00:23:19;99738.78;;;10.65;72.42
69622;BME280;56841;55.964;37.674;2022-09-12T00:25:47;99744.72;;;10.59;73.25
69622;BME280;56841;55.964;37.674;2022-09-12T00:28:15;99737.13;;;10.64;73.20
69622;BME280;56841;55.964;37.674;2022-09-12T00:30:42;99743.22;;;10.73;72.92
69622;BME280;56841;55.964;37.674;2022-09-12T00:33:09;99740.94;;;10.62;73.03
69622;BME280;56841;55.964;37.674;2022-09-12T00:35:46;99738.44;;;10.52;73.80
69622;BME280;56841;55.964;37.674;2022-09-12T00:38:13;99727.72;;;10.62;73.32
69622;BME280;56841;55.964;37.674;2022-09-12T00:40:39;99731.84;;;10.64;73.56
69622;BME280;56841;55.964;37.674;2022-09-12T00:43:31;99731.03;;;10.48;75.20
69622;BME280;56841;55.964;37.674;2022-09-12T00:46:03;99729.22;;;10.48;76.18
69622;BME280;56841;55.964;37.674;2022-09-12T00:48:38;99726.56;;;10.48;75.63
69622;BME280;56841;55.964;37.674;2022-09-12T00:51:07;99727.56;;;10.55;75.40
69622;BME280;56841;55.964;37.674;2022-09-12T00:53:33;99730.53;;;10.60;74.14
69622;BME280;56841;55.964;37.674;2022-09-12T00:55:59;99737.13;;;10.64;74.21
69622;BME280;56841;55.964;37.674;2022-09-12T00:58:29;99733.50;;;10.65;74.67
69622;BME280;56841;55.964;37.674;2022-09-12T01:00:57;99729.53;;;10.61;74.62
69622;BME280;56841;55.964;37.674;2022-09-12T01:03:23;99728.88;;;10.59;74.99
69622;BME280;56841;55.964;37.674;2022-09-12T01:06:04;99728.38;;;10.56;74.41
69622;BME280;56841;55.964;37.674;2022-09-12T01:08:32;99723.59;;;10.59;74.90
69622;BME280;56841;55.964;37.674;2022-09-12T01:11:03;99723.28;;;10.62;74.69
69622;BME280;56841;55.964;37.674;2022-09-12T01:13:31;99728.56;;;10.54;74.71
69622;BME280;56841;55.964;37.674;2022-09-12T01:15:58;99718.66;;;10.48;76.28
69622;BME280;56841;55.964;37.674;2022-09-12T01:18:34;99721.63;;;10.45;75.73
69622;BME280;56841;55.964;37.674;2022-09-12T01:29:08;99708.06;;;10.32;76.68
69622;BME280;56841;55.964;37.674;2022-09-12T01:39:34;99708.59;;;10.52;75.76
69622;BME280;56841;55.964;37.674;2022-09-12T01:45:17;99712.88;;;10.44;76.88
69622;BME280;56841;55.964;37.674;2022-09-12T01:47:52;99706.59;;;10.37;77.24
69622;BME280;56841;55.964;37.674;2022-09-12T01:50:26;99711.88;;;10.37;77.21
69622;BME280;56841;55.964;37.674;2022-09-12T01:52:54;99720.44;;;10.31;77.82
69622;BME280;56841;55.964;37.674;2022-09-12T01:56:20;99724.25;;;10.37;78.29
69622;BME280;56841;55.964;37.674;2022-09-12T01:58:44;99716.97;;;10.39;78.13
69622;BME280;56841;55.964;37.674;2022-09-12T02:01:19;99723.25;;;10.30;77.85
69622;BME280;56841;55.964;37.674;2022-09-12T02:06:32;99722.56;;;10.19;78.45
69622;BME280;56841;55.964;37.674;2022-09-12T02:09:07;99712.31;;;10.16;79.00
69622;BME280;56841;55.964;37.674;2022-09-12T02:11:37;99720.06;;;10.18;78.17
69622;BME280;56841;55.964;37.674;2022-09-12T02:14:31;99717.28;;;10.19;78.66
69622;BME280;56841;55.964;37.674;2022-09-12T02:17:08;99717.59;;;10.25;78.18
69622;BME280;56841;55.964;37.674;2022-09-12T02:19:45;99715.50;;;10.28;77.81
69622;BME280;56841;55.964;37.674;2022-09-12T02:22:15;99717.50;;;10.26;77.81
69622;BME280;56841;55.964;37.674;2022-09-12T02:24:45;99724.69;;;10.24;77.81
69622;BME280;56841;55.964;37.674;2022-09-12T02:27:46;99724.09;;;10.30;78.32
69622;BME280;56841;55.964;37.674;2022-09-12T02:30:15;99723.25;;;10.30;78.26
69622;BME280;56841;55.964;37.674;2022-09-12T02:35:14;99707.53;;;10.20;78.44
69622;BME280;56841;55.964;37.674;2022-09-12T02:40:27;99704.56;;;10.15;78.81
69622;BME280;56841;55.964;37.674;2022-09-12T02:42:53;99700.59;;;10.03;79.08
69622;BME280;56841;55.964;37.674;2022-09-12T02:45:20;99705.88;;;10.03;79.24
69622;BME280;56841;55.964;37.674;2022-09-12T02:50:32;99701.06;;;9.98;78.63
69622;BME280;56841;55.964;37.674;2022-09-12T02:53:00;99704.53;;;9.99;78.84
69622;BME280;56841;55.964;37.674;2022-09-12T02:55:34;99710.16;;;10.04;77.81
69622;BME280;56841;55.964;37.674;2022-09-12T02:58:02;99711.97;;;10.03;77.76
69622;BME280;56841;55.964;37.674;2022-09-12T03:00:35;99716.75;;;10.00;77.99
69622;BME280;56841;55.964;37.674;2022-09-12T03:05:46;99710.28;;;9.94;78.10
69622;BME280;56841;55.964;37.674;2022-09-12T03:11:29;99709.97;;;9.89;78.77
69622;BME280;56841;55.964;37.674;2022-09-12T03:19:20;99720.16;;;9.84;78.43
69622;BME280;56841;55.964;37.674;2022-09-12T03:22:02;99720.31;;;9.82;78.88
69622;BME280;56841;55.964;37.674;2022-09-12T03:24:32;99723.97;;;9.89;78.80
69622;BME280;56841;55.964;37.674;2022-09-12T03:29:29;99724.28;;;9.86;79.20
69622;BME280;56841;55.964;37.674;2022-09-12T03:31:57;99725.75;;;9.81;80.01
69622;BME280;56841;55.964;37.674;2022-09-12T03:34:24;99723.16;;;9.89;79.73
69622;BME280;56841;55.964;37.674;2022-09-12T03:36:52;99722.13;;;9.82;79.79
69622;BME280;56841;55.964;37.674;2022-09-12T03:39:20;99728.56;;;9.87;79.82
69622;BME280;56841;55.964;37.674;2022-09-12T03:41:49;99724.47;;;9.93;79.42
69622;BME280;56841;55.964;37.674;2022-09-12T03:44:16;99722.97;;;9.90;80.44
69622;BME280;56841;55.964;37.674;2022-09-12T03:46:42;99721.84;;;9.93;80.38
69622;BME280;56841;55.964;37.674;2022-09-12T03:49:08;99719.03;;;9.94;80.25
69622;BME280;56841;55.964;37.674;2022-09-12T03:51:36;99727.59;;;9.96;80.46
69622;BME280;56841;55.964;37.674;2022-09-12T03:54:02;99722.31;;;9.88;80.45
69622;BME280;56841;55.964;37.674;2022-09-12T03:56:29;99722.16;;;9.90;81.16
69622;BME280;56841;55.964;37.674;2022-09-12T03:58:55;99719.53;;;9.98;80.78
69622;BME280;56841;55.964;37.674;2022-09-12T04:01:21;99724.16;;;10.04;80.63
69622;BME280;56841;55.964;37.674;2022-09-12T04:03:49;99722.69;;;10.10;80.81
69622;BME280;56841;55.964;37.674;2022-09-12T04:06:17;99723.19;;;10.05;80.75
69622;BME280;56841;55.964;37.674;2022-09-12T04:08:47;99727.28;;;10.00;80.96
69622;BME280;56841;55.964;37.674;2022-09-12T04:11:14;99732.63;;;10.16;80.37
69622;BME280;56841;55.964;37.674;2022-09-12T04:13:41;99736.41;;;10.21;81.01
69622;BME280;56841;55.964;37.674;2022-09-12T04:16:08;99730.97;;;10.23;80.27
69622;BME280;56841;55.964;37.674;2022-09-12T04:18:34;99731.78;;;10.24;81.01
69622;BME280;56841;55.964;37.674;2022-09-12T04:21:05;99733.75;;;10.21;81.59
69622;BME280;56841;55.964;37.674;2022-09-12T04:23:31;99728.47;;;10.21;80.64
69622;BME280;56841;55.964;37.674;2022-09-12T04:25:58;99729.97;;;10.24;81.18
69622;BME280;56841;55.964;37.674;2022-09-12T04:28:26;99726.16;;;10.18;81.79
69622;BME280;56841;55.964;37.674;2022-09-12T04:30:54;99729.38;;;10.30;81.11
69622;BME280;56841;55.964;37.674;2022-09-12T04:33:20;99731.69;;;10.33;80.86
69622;BME280;56841;55.964;37.674;2022-09-12T04:35:46;99726.72;;;10.38;80.68
69622;BME280;56841;55.964;37.674;2022-09-12T04:38:12;99729.69;;;10.27;81.26
69622;BME280;56841;55.964;37.674;2022-09-12T04:40:38;99729.34;;;10.38;81.38
69622;BME280;56841;55.964;37.674;2022-09-12T04:43:04;99732.00;;;10.38;81.11
69622;BME280;56841;55.964;37.674;2022-09-12T04:45:32;99730.53;;;10.44;80.61
69622;BME280;56841;55.964;37.674;2022-09-12T04:47:58;99729.22;;;10.48;80.68
69622;BME280;56841;55.964;37.674;2022-09-12T04:50:24;99732.19;;;10.53;80.78
69622;BME280;56841;55.964;37.674;2022-09-12T04:52:51;99730.69;;;10.51;80.77
69622;BME280;56841;55.964;37.674;2022-09-12T04:55:19;99731.03;;;10.56;80.46
69622;BME280;56841;55.964;37.674;2022-09-12T04:57:45;99734.97;;;10.52;81.29
69622;BME280;56841;55.964;37.674;2022-09-12T05:00:11;99734.00;;;10.61;81.51
69622;BME280;56841;55.964;37.674;2022-09-12T05:02:38;99736.78;;;10.59;80.67
69622;BME280;56841;55.964;37.674;2022-09-12T05:05:04;99739.63;;;10.58;82.27
69622;BME280;56841;55.964;37.674;2022-09-12T05:07:30;99740.94;;;10.62;81.99
69622;BME280;56841;55.964;37.674;2022-09-12T05:09:57;99745.03;;;10.56;81.74
69622;BME280;56841;55.964;37.674;2022-09-12T05:12:23;99743.56;;;10.62;81.87
69622;BME280;56841;55.964;37.674;2022-09-12T05:14:49;99738.94;;;10.56;82.66
69622;BME280;56841;55.964;37.674;2022-09-12T05:17:15;99736.31;;;10.64;82.19
69622;BME280;56841;55.964;37.674;2022-09-12T05:19:41;99738.13;;;10.55;82.81
69622;BME280;56841;55.964;37.674;2022-09-12T05:22:06;99740.75;;;10.55;82.79
69622;BME280;56841;55.964;37.674;2022-09-12T05:24:33;99743.56;;;10.62;83.15
69622;BME280;56841;55.964;37.674;2022-09-12T05:26:59;99747.38;;;10.67;83.16
69622;BME280;56841;55.964;37.674;2022-09-12T05:29:25;99739.47;;;10.67;82.78
69622;BME280;56841;55.964;37.674;2022-09-12T05:31:51;99743.75;;;10.68;83.65
69622;BME280;56841;55.964;37.674;2022-09-12T05:34:18;99738.63;;;10.59;83.51
69622;BME280;56841;55.964;37.674;2022-09-12T05:36:44;99745.56;;;10.60;83.40
69622;BME280;56841;55.964;37.674;2022-09-12T05:39:10;99736.97;;;10.50;84.67
69622;BME280;56841;55.964;37.674;2022-09-12T05:41:36;99740.28;;;10.60;85.04
69622;BME280;56841;55.964;37.674;2022-09-12T05:44:04;99740.25;;;10.76;83.13
69622;BME280;56841;55.964;37.674;2022-09-12T05:46:35;99741.94;;;10.77;82.28
69622;BME280;56841;55.964;37.674;2022-09-12T05:49:03;99739.94;;;10.79;82.83
69622;BME280;56841;55.964;37.674;2022-09-12T05:51:33;99741.41;;;10.90;83.13
69622;BME280;56841;55.964;37.674;2022-09-12T05:54:00;99737.94;;;10.89;82.39
69622;BME280;56841;55.964;37.674;2022-09-12T05:56:29;99739.28;;;11.02;83.79
69622;BME280;56841;55.964;37.674;2022-09-12T06:01:23;99735.31;;;10.89;84.35
69622;BME280;56841;55.964;37.674;2022-09-12T06:03:52;99736.81;;;10.92;83.66
69622;BME280;56841;55.964;37.674;2022-09-12T06:06:20;99728.69;;;10.94;83.64
69622;BME280;56841;55.964;37.674;2022-09-12T06:08:48;99724.56;;;10.99;83.05
69622;BME280;56841;55.964;37.674;2022-09-12T06:11:17;99729.03;;;10.99;83.22
69622;BME280;56841;55.964;37.674;2022-09-12T06:13:44;99720.25;;;11.06;83.45
69622;BME280;56841;55.964;37.674;2022-09-12T06:16:13;99724.53;;;11.07;82.81
69622;BME280;56841;55.964;37.674;2022-09-12T06:18:39;99736.13;;;11.06;84.80
69622;BME280;56841;55.964;37.674;2022-09-12T06:21:10;99730.00;;;11.06;83.45
69622;BME280;56841;55.964;37.674;2022-09-12T06:23:37;99733.47;;;11.14;84.14
69622;BME280;56841;55.964;37.674;2022-09-12T06:26:05;99725.84;;;11.20;84.42
69622;BME280;56841;55.964;37.674;2022-09-12T06:28:33;99736.41;;;11.20;83.64
69622;BME280;56841;55.964;37.674;2022-09-12T06:31:07;99732.78;;;11.21;84.74
69622;BME280;56841;55.964;37.674;2022-09-12T06:33:35;99735.22;;;11.38;85.22
69622;BME280;56841;55.964;37.674;2022-09-12T06:36:09;99732.84;;;11.60;83.67
69622;BME280;56841;55.964;37.674;2022-09-12T06:38:36;99735.75;;;11.73;82.50
69622;BME280;56841;55.964;37.674;2022-09-12T06:41:04;99727.25;;;11.94;82.45
69622;BME280;56841;55.964;37.674;2022-09-12T06:43:31;99738.06;;;11.76;81.36
69622;BME280;56841;55.964;37.674;2022-09-12T06:45:57;99733.06;;;11.81;82.14
69622;BME280;56841;55.964;37.674;2022-09-12T06:48:23;99732.78;;;11.76;81.23
69622;BME280;56841;55.964;37.674;2022-09-12T06:51:06;99729.31;;;11.68;81.66
69622;BME280;56841;55.964;37.674;2022-09-12T06:53:35;99729.50;;;11.66;81.60
69622;BME280;56841;55.964;37.674;2022-09-12T06:56:06;99730.63;;;11.72;81.88
69622;BME280;56841;55.964;37.674;2022-09-12T06:58:32;99729.41;;;11.82;81.34
69622;BME280;56841;55.964;37.674;2022-09-12T07:01:04;99727.78;;;11.81;82.08
69622;BME280;56841;55.964;37.674;2022-09-12T07:03:31;99737.16;;;11.53;83.57
69622;BME280;56841;55.964;37.674;2022-09-12T07:06:06;99723.69;;;11.71;83.26
69622;BME280;56841;55.964;37.674;2022-09-12T07:08:33;99730.81;;;11.70;83.14
69622;BME280;56841;55.964;37.674;2022-09-12T07:13:39;99743.81;;;11.88;83.23
69622;BME280;56841;55.964;37.674;2022-09-12T07:16:05;99738.25;;;12.06;82.79
69622;BME280;56841;55.964;37.674;2022-09-12T07:18:32;99735.94;;;12.34;81.15
69622;BME280;56841;55.964;37.674;2022-09-12T07:20:59;99734.59;;;12.38;80.92
69622;BME280;56841;55.964;37.674;2022-09-12T07:23:27;99729.31;;;12.38;79.82
69622;BME280;56841;55.964;37.674;2022-09-12T07:25:57;99731.66;;;12.33;78.97
69622;BME280;56841;55.964;37.674;2022-09-12T07:28:24;99721.84;;;12.42;79.47
69622;BME280;56841;55.964;37.674;2022-09-12T07:30:50;99721.06;;;12.56;80.08
69622;BME280;56841;55.964;37.674;2022-09-12T07:33:23;99732.06;;;12.45;78.51
69622;BME280;56841;55.964;37.674;2022-09-12T07:35:49;99723.22;;;12.29;79.32
69622;BME280;56841;55.964;37.674;2022-09-12T07:38:15;99728.78;;;12.43;78.94
69622;BME280;56841;55.964;37.674;2022-09-12T07:40:42;99724.88;;;12.53;78.48
69622;BME280;56841;55.964;37.674;2022-09-12T07:43:08;99726.47;;;12.63;78.41
69622;BME280;56841;55.964;37.674;2022-09-12T07:45:34;99733.09;;;12.81;77.09
69622;BME280;56841;55.964;37.674;2022-09-12T07:48:00;99731.22;;;12.67;76.66
69622;BME280;56841;55.964;37.674;2022-09-12T07:50:26;99736.75;;;12.80;76.55
69622;BME280;56841;55.964;37.674;2022-09-12T07:52:55;99735.94;;;12.95;76.62
69622;BME280;56841;55.964;37.674;2022-09-12T07:55:21;99734.22;;;13.02;74.86
69622;BME280;56841;55.964;37.674;2022-09-12T07:57:52;99739.81;;;13.22;73.63
69622;BME280;56841;55.964;37.674;2022-09-12T08:00:20;99735.03;;;13.40;73.78
69622;BME280;56841;55.964;37.674;2022-09-12T08:02:53;99728.72;;;13.41;72.21
69622;BME280;56841;55.964;37.674;2022-09-12T08:05:19;99734.94;;;13.34;72.29
69622;BME280;56841;55.964;37.674;2022-09-12T08:07:45;99737.13;;;13.30;72.81
69622;BME280;56841;55.964;37.674;2022-09-12T08:10:11;99742.03;;;13.18;72.18
69622;BME280;56841;55.964;37.674;2022-09-12T08:12:37;99742.00;;;13.26;72.23
69622;BME280;56841;55.964;37.674;2022-09-12T08:15:04;99734.84;;;13.27;72.83
69622;BME280;56841;55.964;37.674;2022-09-12T08:17:30;99737.41;;;13.35;71.94
69622;BME280;56841;55.964;37.674;2022-09-12T08:19:55;99745.34;;;13.35;72.72
69622;BME280;56841;55.964;37.674;2022-09-12T08:22:22;99742.44;;;13.45;72.63
69622;BME280;56841;55.964;37.674;2022-09-12T08:24:48;99739.13;;;13.28;71.21
69622;BME280;56841;55.964;37.674;2022-09-12T08:27:15;99740.91;;;13.13;71.67
69622;BME280;56841;55.964;37.674;2022-09-12T08:29:40;99749.03;;;12.96;72.34
69622;BME280;56841;55.964;37.674;2022-09-12T08:32:07;99736.59;;;12.97;73.29
69622;BME280;56841;55.964;37.674;2022-09-12T08:34:33;99744.56;;;12.97;72.70
69622;BME280;56841;55.964;37.674;2022-09-12T08:36:59;99743.44;;;12.91;71.74
69622;BME280;56841;55.964;37.674;2022-09-12T08:39:25;99746.94;;;13.07;71.93
69622;BME280;56841;55.964;37.674;2022-09-12T08:42:03;99761.03;;;13.07;71.63
69622;BME280;56841;55.964;37.674;2022-09-12T08:45:02;99748.03;;;12.97;72.37
69622;BME280;56841;55.964;37.674;2022-09-12T08:47:35;99744.25;;;12.92;71.35
69622;BME280;56841;55.964;37.674;2022-09-12T08:55:01;99748.97;;;12.81;71.77
69622;BME280;56841;55.964;37.674;2022-09-12T08:57:28;99740.06;;;12.83;72.34
69622;BME280;56841;55.964;37.674;2022-09-12T08:59:54;99736.53;;;12.67;71.65
69622;BME280;56841;55.964;37.674;2022-09-12T09:05:36;99738.34;;;12.67;72.49
69622;BME280;56841;55.964;37.674;2022-09-12T09:16:48;99741.34;;;13.01;70.35
69622;BME280;56841;55.964;37.674;2022-09-12T09:21:55;99741.66;;;13.07;70.74
69622;BME280;56841;55.964;37.674;2022-09-12T09:24:27;99744.25;;;12.92;70.35
69622;BME280;56841;55.964;37.674;2022-09-12T09:27:01;99740.63;;;12.93;70.82
69622;BME280;56841;55.964;37.674;2022-09-12T09:29:38;99739.31;;;12.89;69.90
69622;BME280;56841;55.964;37.674;2022-09-12T09:32:58;99745.47;;;12.89;71.20
69622;BME280;56841;55.964;37.674;2022-09-12T09:34:59;99743.84;;;13.03;69.59
69622;BME280;56841;55.964;37.674;2022-09-12T09:40:18;99743.53;;;12.98;68.67
69622;BME280;56841;55.964;37.674;2022-09-12T09:43:21;99737.38;;;13.20;68.66
69622;BME280;56841;55.964;37.674;2022-09-12T09:45:49;99743.81;;;13.41;67.96
69622;BME280;56841;55.964;37.674;2022-09-12T09:48:35;99734.81;;;13.57;68.76
69622;BME280;56841;55.964;37.674;2022-09-12T09:51:03;99748.84;;;13.50;68.08
69622;BME280;56841;55.964;37.674;2022-09-12T09:53:55;99740.69;;;13.52;67.42
69622;BME280;56841;55.964;37.674;2022-09-12T09:56:37;99742.72;;;13.65;65.55
69622;BME280;56841;55.964;37.674;2022-09-12T09:59:25;99742.69;;;13.50;65.57
69622;BME280;56841;55.964;37.674;2022-09-12T10:01:54;99735.75;;;13.49;65.88
69622;BME280;56841;55.964;37.674;2022-09-12T10:04:26;99737.28;;;13.73;64.98
69622;BME280;56841;55.964;37.674;2022-09-12T10:06:56;99732.81;;;13.73;64.16
69622;BME280;56841;55.964;37.674;2022-09-12T10:09:31;99734.84;;;13.71;63.42
69622;BME280;56841;55.964;37.674;2022-09-12T10:12:27;99736.44;;;13.87;64.32
69622;BME280;56841;55.964;37.674;2022-09-12T10:15:01;99732.94;;;14.02;63.97
69622;BME280;56841;55.964;37.674;2022-09-12T10:17:43;99732.16;;;14.22;63.26
69622;BME280;56841;55.964;37.674;2022-09-12T10:22:58;99727.03;;;14.42;61.97
69622;BME280;56841;55.964;37.674;2022-09-12T10:25:25;99728.47;;;14.60;62.14
69622;BME280;56841;55.964;37.674;2022-09-12T10:27:54;99732.44;;;14.71;61.41
69622;BME280;56841;55.964;37.674;2022-09-12T10:30:21;99733.94;;;14.80;61.11
69622;BME280;56841;55.964;37.674;2022-09-12T10:32:50;99733.16;;;14.86;61.59
69622;BME280;56841;55.964;37.674;2022-09-12T10:35:27;99731.88;;;15.03;61.52
69622;BME280;56841;55.964;37.674;2022-09-12T10:38:04;99732.22;;;15.22;60.96
69622;BME280;56841;55.964;37.674;2022-09-12T10:40:38;99734.97;;;15.41;59.85
69622;BME280;56841;55.964;37.674;2022-09-12T10:45:56;99741.75;;;15.44;59.44
69622;BME280;56841;55.964;37.674;2022-09-12T10:48:30;99732.22;;;15.22;58.68
69622;BME280;56841;55.964;37.674;2022-09-12T10:51:00;99725.88;;;15.23;58.35
69622;BME280;56841;55.964;37.674;2022-09-12T10:53:28;99727.28;;;15.19;58.68
69622;BME280;56841;55.964;37.674;2022-09-12T10:56:15;99720.59;;;15.29;58.34
69622;BME280;56841;55.964;37.674;2022-09-12T11:01:47;99718.53;;;15.25;58.31
69622;BME280;56841;55.964;37.674;2022-09-12T11:13:15;99715.13;;;15.09;58.08
69622;BME280;56841;55.964;37.674;2022-09-12T11:16:07;99724.91;;;15.02;58.79
69622;BME280;56841;55.964;37.674;2022-09-12T11:21:32;99716.44;;;15.20;58.80
69622;BME280;56841;55.964;37.674;2022-09-12T11:40:49;99718.59;;;15.73;55.98
69622;BME280;56841;55.964;37.674;2022-09-12T11:48:58;99716.84;;;15.58;55.83
69622;BME280;56841;55.964;37.674;2022-09-12T11:51:32;99709.28;;;15.62;55.68
69622;BME280;56841;55.964;37.674;2022-09-12T11:54:04;99707.53;;;15.69;55.14
69622;BME280;56841;55.964;37.674;2022-09-12T11:56:33;99696.16;;;15.54;55.09
69622;BME280;56841;55.964;37.674;2022-09-12T11:59:08;99702.75;;;15.64;55.46
69622;BME280;56841;55.964;37.674;2022-09-12T12:01:40;99694.69;;;15.93;54.53
69622;BME280;56841;55.964;37.674;2022-09-12T12:04:15;99692.91;;;16.13;53.72
69622;BME280;56841;55.964;37.674;2022-09-12T12:06:55;99692.84;;;15.86;54.08
69622;BME280;56841;55.964;37.674;2022-09-12T12:09:24;99698.03;;;16.15;53.66
69622;BME280;56841;55.964;37.674;2022-09-12T12:11:53;99687.63;;;16.53;52.54
69622;BME280;56841;55.964;37.674;2022-09-12T12:14:39;99690.50;;;16.45;52.49
69622;BME280;56841;55.964;37.674;2022-09-12T12:17:21;99684.34;;;16.51;52.76
69622;BME280;56841;55.964;37.674;2022-09-12T12:20:00;99688.03;;;16.43;51.99
69622;BME280;56841;55.964;37.674;2022-09-12T12:22:29;99686.41;;;16.55;52.01
69622;BME280;56841;55.964;37.674;2022-09-12T12:35:42;99686.81;;;16.39;51.62
69622;BME280;56841;55.964;37.674;2022-09-12T12:38:38;99682.91;;;16.35;51.85
69622;BME280;56841;55.964;37.674;2022-09-12T12:43:46;99685.13;;;16.18;51.79
69622;BME280;56841;55.964;37.674;2022-09-12T12:46:20;99673.22;;;16.01;51.82
69622;BME280;56841;55.964;37.674;2022-09-12T12:51:19;99676.25;;;15.84;52.46
69622;BME280;56841;55.964;37.674;2022-09-12T12:53:51;99681.13;;;15.74;53.47
69622;BME280;56841;55.964;37.674;2022-09-12T12:56:59;99674.88;;;15.54;53.55
69622;BME280;56841;55.964;37.674;2022-09-12T12:59:20;99672.63;;;15.57;53.55
69622;BME280;56841;55.964;37.674;2022-09-12T13:01:54;99669.34;;;15.55;53.37
69622;BME280;56841;55.964;37.674;2022-09-12T13:04:26;99670.25;;;15.69;53.18
69622;BME280;56841;55.964;37.674;2022-09-12T13:07:05;99666.00;;;15.81;52.75
69622;BME280;56841;55.964;37.674;2022-09-12T13:09:41;99659.66;;;15.89;52.78
69622;BME280;56841;55.964;37.674;2022-09-12T13:12:23;99665.84;;;16.03;52.42
69622;BME280;56841;55.964;37.674;2022-09-12T13:15:00;99655.63;;;16.33;52.18
69622;BME280;56841;55.964;37.674;2022-09-12T13:20:22;99658.88;;;16.08;51.88
69622;BME280;56841;55.964;37.674;2022-09-12T13:22:50;99663.41;;;16.15;51.52
69622;BME280;56841;55.964;37.674;2022-09-12T13:25:35;99668.34;;;16.24;50.84
69622;BME280;56841;55.964;37.674;2022-09-12T13:28:05;99657.84;;;16.09;50.94
69622;BME280;56841;55.964;37.674;2022-09-12T13:30:39;99665.06;;;16.22;51.17
69622;BME280;56841;55.964;37.674;2022-09-12T13:43:39;99654.94;;;15.84;51.89
69622;BME280;56841;55.964;37.674;2022-09-12T13:46:08;99654.78;;;16.13;50.80
69622;BME280;56841;55.964;37.674;2022-09-12T13:48:35;99650.31;;;16.33;50.66
69622;BME280;56841;55.964;37.674;2022-09-12T13:51:02;99646.19;;;16.37;50.46
69622;BME280;56841;55.964;37.674;2022-09-12T13:53:31;99643.53;;;16.37;50.39
69622;BME280;56841;55.964;37.674;2022-09-12T13:56:02;99654.59;;;16.34;50.54
69622;BME280;56841;55.964;37.674;2022-09-12T13:58:30;99650.09;;;16.08;51.36
69622;BME280;56841;55.964;37.674;2022-09-12T14:01:00;99642.44;;;15.85;51.52
69622;BME280;56841;55.964;37.674;2022-09-12T14:03:32;99647.38;;;15.88;51.91
69622;BME280;56841;55.964;37.674;2022-09-12T14:06:18;99658.16;;;15.67;51.91
69622;BME280;56841;55.964;37.674;2022-09-12T14:08:45;99650.94;;;15.60;52.58
69622;BME280;56841;55.964;37.674;2022-09-12T14:11:22;99653.75;;;15.46;52.82
69622;BME280;56841;55.964;37.674;2022-09-12T14:13:49;99656.19;;;15.40;53.33
69622;BME280;56841;55.964;37.674;2022-09-12T14:16:18;99658.31;;;15.17;53.74
69622;BME280;56841;55.964;37.674;2022-09-12T14:18:46;99660.38;;;14.87;54.41
69622;BME280;56841;55.964;37.674;2022-09-12T14:21:35;99658.25;;;14.76;55.10
69622;BME280;56841;55.964;37.674;2022-09-12T14:24:04;99653.63;;;14.84;55.04
69622;BME280;56841;55.964;37.674;2022-09-12T14:26:35;99659.44;;;14.73;55.21
69622;BME280;56841;55.964;37.674;2022-09-12T14:29:06;99655.16;;;14.72;55.66
69622;BME280;56841;55.964;37.674;2022-09-12T14:31:37;99653.88;;;14.61;56.24
69622;BME280;56841;55.964;37.674;2022-09-12T14:34:12;99651.63;;;14.65;55.99
69622;BME280;56841;55.964;37.674;2022-09-12T14:36:48;99652.69;;;14.49;56.78
69622;BME280;56841;55.964;37.674;2022-09-12T14:39:23;99653.44;;;14.36;56.74
69622;BME280;56841;55.964;37.674;2022-09-12T14:42:00;99652.34;;;14.31;57.08
69622;BME280;56841;55.964;37.674;2022-09-12T14:44:28;99655.88;;;14.38;56.64
69622;BME280;56841;55.964;37.674;2022-09-12T14:49:59;99666.25;;;14.11;58.08
69622;BME280;56841;55.964;37.674;2022-09-12T14:52:31;99661.81;;;13.97;58.27
69622;BME280;56841;55.964;37.674;2022-09-12T14:57:41;99660.81;;;13.98;58.63
69622;BME280;56841;55.964;37.674;2022-09-12T15:02:38;99659.75;;;13.92;58.49
69622;BME280;56841;55.964;37.674;2022-09-12T15:07:37;99656.19;;;13.85;58.55
69622;BME280;56841;55.964;37.674;2022-09-12T15:10:05;99662.75;;;13.68;58.85
69622;BME280;56841;55.964;37.674;2022-09-12T15:12:32;99665.06;;;13.78;58.82
69622;BME280;56841;55.964;37.674;2022-09-12T15:15:17;99671.88;;;13.65;58.84
69622;BME280;56841;55.964;37.674;2022-09-12T15:17:43;99670.16;;;13.58;59.03
69622;BME280;56841;55.964;37.674;2022-09-12T15:20:09;99675.03;;;13.54;59.47
69622;BME280;56841;55.964;37.674;2022-09-12T15:22:36;99678.03;;;13.51;59.19
69622;BME280;56841;55.964;37.674;2022-09-12T15:25:03;99672.28;;;13.33;59.53
69622;BME280;56841;55.964;37.674;2022-09-12T15:27:31;99680.06;;;13.34;59.57
69622;BME280;56841;55.964;37.674;2022-09-12T15:29:59;99675.03;;;13.24;59.64
69622;BME280;56841;55.964;37.674;2022-09-12T15:32:27;99673.66;;;13.28;59.55
69622;BME280;56841;55.964;37.674;2022-09-12T15:34:54;99684.16;;;13.07;59.70
69622;BME280;56841;55.964;37.674;2022-09-12T15:37:21;99681.75;;;13.12;59.72
69622;BME280;56841;55.964;37.674;2022-09-12T15:39:48;99689.16;;;13.02;59.15
69622;BME280;56841;55.964;37.674;2022-09-12T15:42:16;99680.31;;;13.10;59.59